Time;durP1;ratioP1;P1;durP2;ratioP2;P2;SDS_P1;SDS_P2;PMS_P1;PMS_P2;Temp;Humidity;BMP_temperature;BMP_pressure;BME280_temperature;BME280_humidity;BME280_pressure;Samples;Min_cycle;Max_cycle;Signal;HPM_P1;HPM_P2
2023/10/10 00:01:41;;;;;;;40.95;23.90;;;16.20;99.90;;;;;;4992843;28;20375;-88
2023/10/10 00:04:06;;;;;;;39.35;24.17;;;16.30;99.90;;;;;;4993524;28;20034;-87
2023/10/10 00:06:38;;;;;;;43.55;26.27;;;16.20;99.90;;;;;;5012243;28;20088;-87
2023/10/10 00:09:13;;;;;;;32.70;22.02;;;16.20;99.90;;;;;;4994202;28;20382;-86
2023/10/10 00:11:45;;;;;;;37.08;23.08;;;16.30;99.90;;;;;;4993289;28;20030;-87
2023/10/10 00:14:17;;;;;;;40.63;25.10;;;16.20;99.90;;;;;;4994285;28;20038;-87
2023/10/10 00:16:43;;;;;;;36.75;23.83;;;16.20;99.90;;;;;;4992144;28;20041;-87
2023/10/10 00:19:20;;;;;;;37.22;22.50;;;16.20;99.90;;;;;;4994210;28;20498;-87
2023/10/10 00:21:53;;;;;;;36.97;22.83;;;16.20;99.90;;;;;;4993455;28;20030;-87
2023/10/10 00:24:37;;;;;;;43.70;27.58;;;16.20;99.90;;;;;;4994689;28;20025;-87
2023/10/10 00:27:12;;;;;;;37.08;25.05;;;16.10;99.90;;;;;;4992794;28;20040;-88
2023/10/10 00:29:42;;;;;;;40.88;25.52;;;16.00;99.90;;;;;;4989015;28;20022;-86
2023/10/10 00:32:14;;;;;;;38.65;24.67;;;15.90;99.90;;;;;;4984282;28;20022;-86
2023/10/10 00:34:43;;;;;;;36.08;22.42;;;15.90;99.90;;;;;;5009760;28;20070;-86
2023/10/10 00:37:11;;;;;;;34.55;22.90;;;15.80;99.90;;;;;;5009088;28;20058;-86
2023/10/10 00:39:36;;;;;;;38.30;24.08;;;15.70;99.90;;;;;;4994201;28;20033;-86
2023/10/10 00:42:07;;;;;;;44.70;24.70;;;15.60;99.90;;;;;;5009879;28;20424;-85
2023/10/10 00:44:37;;;;;;;28.92;19.52;;;15.50;99.90;;;;;;4992807;28;20030;-86
2023/10/10 00:47:04;;;;;;;32.58;21.73;;;15.50;99.90;;;;;;4993085;28;20469;-86
2023/10/10 00:49:34;;;;;;;27.48;19.10;;;15.40;99.90;;;;;;4991392;28;20022;-86
2023/10/10 00:52:06;;;;;;;32.00;19.90;;;15.30;99.90;;;;;;4984529;28;20485;-88
2023/10/10 00:54:39;;;;;;;27.73;18.70;;;15.20;99.90;;;;;;4992086;28;20481;-86
2023/10/10 00:57:08;;;;;;;27.33;18.50;;;15.20;99.90;;;;;;4989482;28;20041;-86
2023/10/10 00:59:43;;;;;;;29.77;20.15;;;15.10;99.90;;;;;;4988611;28;20417;-86
2023/10/10 01:02:12;;;;;;;34.60;21.75;;;15.00;99.90;;;;;;4992207;28;20033;-85
2023/10/10 01:04:39;;;;;;;51.90;25.60;;;15.00;99.90;;;;;;4994838;28;20072;-86
2023/10/10 01:07:08;;;;;;;39.97;23.15;;;15.00;99.90;;;;;;4991550;28;20116;-84
2023/10/10 01:09:40;;;;;;;37.72;24.02;;;15.00;99.90;;;;;;4988536;28;20118;-86
2023/10/10 01:12:06;;;;;;;;;;;15.00;99.90;;;;;;4993819;28;20473;-85
2023/10/10 01:14:31;;;;;;;36.72;19.98;;;14.90;99.90;;;;;;4993531;28;19909;-86
2023/10/10 01:16:58;;;;;;;37.42;22.48;;;14.80;99.90;;;;;;4992390;28;20084;-86
2023/10/10 01:19:30;;;;;;;41.72;25.08;;;14.80;99.90;;;;;;4993278;28;20042;-86
2023/10/10 01:21:59;;;;;;;;;;;14.80;99.90;;;;;;4987898;28;20053;-87
2023/10/10 01:24:30;;;;;;;41.10;24.17;;;14.80;99.90;;;;;;4990151;28;20363;-87
2023/10/10 01:27:03;;;;;;;54.22;29.73;;;14.80;99.90;;;;;;5006040;28;20022;-87
2023/10/10 01:29:37;;;;;;;48.15;29.90;;;14.70;99.90;;;;;;4986900;28;20084;-87
2023/10/10 01:32:06;;;;;;;53.50;28.58;;;14.70;99.90;;;;;;4989311;28;20026;-87
2023/10/10 01:34:32;;;;;;;45.58;27.27;;;14.80;99.90;;;;;;4994990;28;20022;-87
2023/10/10 01:37:13;;;;;;;46.58;26.88;;;14.70;99.90;;;;;;5007842;28;20026;-87
2023/10/10 01:42:38;;;;;;;106.85;24.27;;;14.60;99.90;;;;;;5000068;28;20022;-87
2023/10/10 01:45:08;;;;;;;63.55;28.65;;;14.50;99.90;;;;;;4989229;28;20105;-87
2023/10/10 01:47:39;;;;;;;81.68;33.22;;;14.50;99.90;;;;;;4984566;28;20022;-87
2023/10/10 01:50:10;;;;;;;83.55;34.72;;;14.50;99.90;;;;;;4975805;28;20148;-87
2023/10/10 01:52:45;;;;;;;72.43;35.83;;;14.50;99.90;;;;;;5004296;28;20027;-87
2023/10/10 01:55:11;;;;;;;85.15;36.42;;;14.50;99.90;;;;;;4990320;28;20087;-87
2023/10/10 01:57:37;;;;;;;87.13;39.47;;;14.50;99.90;;;;;;4992662;28;20034;-89
2023/10/10 02:00:19;;;;;;;155.85;42.50;;;14.50;99.90;;;;;;4997312;28;20441;-87
2023/10/10 02:02:45;;;;;;;170.77;42.95;;;14.60;99.90;;;;;;4997600;28;20442;-89
2023/10/10 02:05:13;;;;;;;89.72;42.10;;;14.50;99.90;;;;;;4994546;28;20188;-88
2023/10/10 02:07:39;;;;;;;111.22;44.22;;;14.60;99.90;;;;;;4978827;28;20030;-89
2023/10/10 02:10:13;;;;;;;124.85;45.55;;;14.60;99.90;;;;;;4980275;28;20072;-89
2023/10/10 02:12:45;;;;;;;115.53;43.85;;;14.60;99.90;;;;;;4990220;28;20034;-87
2023/10/10 02:15:13;;;;;;;119.00;43.47;;;14.70;99.90;;;;;;4994622;28;20029;-87
2023/10/10 02:17:40;;;;;;;108.47;42.25;;;14.70;99.90;;;;;;4990734;28;20042;-89
2023/10/10 02:22:54;;;;;;;135.18;43.10;;;14.70;99.90;;;;;;5012517;28;20072;-87
2023/10/10 02:28:08;;;;;;;116.78;44.78;;;14.70;99.90;;;;;;5014401;28;20018;-89
2023/10/10 02:30:40;;;;;;;129.35;44.38;;;14.70;99.90;;;;;;4990382;28;20058;-89
2023/10/10 02:35:59;;;;;;;139.90;42.60;;;14.70;99.90;;;;;;5013058;28;20359;-89
2023/10/10 02:38:39;;;;;;;106.13;45.35;;;14.70;99.90;;;;;;4985866;28;20414;-89
2023/10/10 02:41:22;;;;;;;206.52;48.28;;;14.70;99.90;;;;;;5004973;28;20386;-89
2023/10/10 02:44:01;;;;;;;144.15;40.00;;;14.70;99.90;;;;;;5001875;28;20032;-88
2023/10/10 02:46:38;;;;;;;198.40;43.72;;;14.70;99.90;;;;;;4993571;28;20045;-89
2023/10/10 02:49:12;;;;;;;136.68;41.42;;;14.60;99.90;;;;;;4985952;28;20033;-89
2023/10/10 02:51:43;;;;;;;105.45;38.92;;;14.60;99.90;;;;;;5006164;28;20027;-90
2023/10/10 02:54:21;;;;;;;209.65;45.78;;;14.60;99.90;;;;;;4993837;28;20099;-89
2023/10/10 02:56:48;;;;;;;145.73;42.08;;;14.60;99.90;;;;;;4982822;28;20418;-88
2023/10/10 02:59:22;;;;;;;169.68;42.50;;;14.60;99.90;;;;;;4990268;28;20040;-89
2023/10/10 03:01:57;;;;;;;117.18;40.55;;;14.60;99.90;;;;;;4978314;28;20032;-89
2023/10/10 03:04:52;;;;;;;98.30;41.30;;;14.50;99.90;;;;;;4993252;28;20026;-89
2023/10/10 03:07:09;;;;;;;142.63;41.30;;;14.50;99.90;;;;;;5013503;28;20029;-89
2023/10/10 03:09:47;;;;;;;191.00;43.72;;;14.50;99.90;;;;;;4993877;28;20026;-89
2023/10/10 03:12:17;;;;;;;126.50;41.75;;;14.50;99.90;;;;;;4989534;28;20022;-88
2023/10/10 03:14:44;;;;;;;210.82;44.50;;;14.40;99.90;;;;;;4986290;28;20548;-89
2023/10/10 03:20:10;;;;;;;119.22;41.30;;;14.40;99.90;;;;;;5005279;28;20044;-89
2023/10/10 03:23:07;;;;;;;145.90;41.60;;;14.50;99.90;;;;;;4983888;28;20026;-89
2023/10/10 03:25:24;;;;;;;115.38;40.10;;;14.40;99.90;;;;;;4994246;28;20080;-88
2023/10/10 03:27:54;;;;;;;133.43;40.53;;;14.40;99.90;;;;;;4984643;28;20033;-89
2023/10/10 03:30:34;;;;;;;131.68;40.85;;;14.40;99.90;;;;;;4992220;28;20384;-89
2023/10/10 03:33:08;;;;;;;109.03;36.90;;;14.40;99.90;;;;;;4980185;28;20125;-89
2023/10/10 03:35:59;;;;;;;91.53;36.03;;;14.40;99.90;;;;;;4973830;28;20082;-88
2023/10/10 03:38:43;;;;;;;125.45;37.97;;;14.40;99.90;;;;;;4982087;28;20038;-89
2023/10/10 05:25:13;;;;;;;116.18;53.60;;;13.90;99.90;;;;;;5011524;28;20028;-89
2023/10/10 05:27:42;;;;;;;116.70;54.05;;;13.90;99.90;;;;;;4988005;28;20053;-90
2023/10/10 05:30:23;;;;;;;118.35;55.03;;;13.90;99.90;;;;;;4997518;28;20045;-90
2023/10/10 05:33:00;;;;;;;116.85;57.10;;;13.80;99.90;;;;;;4988481;28;20029;-90
2023/10/10 05:35:32;;;;;;;120.82;59.90;;;13.70;99.90;;;;;;4996821;28;20120;-90
2023/10/10 05:38:00;;;;;;;124.55;58.88;;;13.70;99.90;;;;;;4998319;28;20061;-90
2023/10/10 05:40:33;;;;;;;123.78;60.80;;;13.70;99.90;;;;;;4997291;28;20029;-90
2023/10/10 05:43:02;;;;;;;112.32;58.40;;;13.70;99.90;;;;;;4996525;28;20532;-90
2023/10/10 05:45:31;;;;;;;127.95;61.00;;;13.60;99.90;;;;;;4994469;28;20053;-90
2023/10/10 05:47:56;;;;;;;120.53;61.92;;;13.60;99.90;;;;;;4994293;28;20040;-89
2023/10/10 05:50:22;;;;;;;133.23;65.03;;;13.50;99.90;;;;;;4995515;28;20112;-89
2023/10/10 05:52:48;;;;;;;129.13;64.28;;;13.50;99.90;;;;;;4994093;28;20022;-90
2023/10/10 05:55:17;;;;;;;118.70;63.75;;;13.50;99.90;;;;;;4996871;28;20025;-88
2023/10/10 05:57:43;;;;;;;124.25;64.45;;;13.50;99.90;;;;;;4996666;28;20030;-89
2023/10/10 06:00:10;;;;;;;119.97;64.47;;;13.50;99.90;;;;;;4992668;28;20060;-90
2023/10/10 06:02:45;;;;;;;112.40;60.60;;;13.50;99.90;;;;;;4997935;28;20033;-90
2023/10/10 06:05:15;;;;;;;112.15;62.05;;;13.40;99.90;;;;;;4997650;28;20037;-89
2023/10/10 06:07:44;;;;;;;113.78;63.03;;;13.40;99.90;;;;;;4996052;28;20025;-89
2023/10/10 06:10:16;;;;;;;124.18;62.72;;;13.40;99.90;;;;;;4993651;28;20033;-89
2023/10/10 06:12:42;;;;;;;103.72;58.05;;;13.40;99.90;;;;;;4991802;28;20564;-89
2023/10/10 06:15:08;;;;;;;108.68;59.53;;;13.40;99.90;;;;;;4996269;28;20413;-89
2023/10/10 06:17:34;;;;;;;107.90;59.83;;;13.40;99.90;;;;;;5000106;28;20026;-88
2023/10/10 06:20:06;;;;;;;108.88;59.60;;;13.40;99.90;;;;;;4998330;28;20117;-89
2023/10/10 06:22:32;;;;;;;;;;;13.40;99.90;;;;;;4990182;28;20109;-89
2023/10/10 06:24:58;;;;;;;98.95;53.60;;;13.40;99.90;;;;;;5009682;28;19956;-89
2023/10/10 06:27:28;;;;;;;94.32;53.63;;;13.30;99.90;;;;;;4995686;28;20026;-90
2023/10/10 06:30:00;;;;;;;92.60;52.67;;;13.40;99.90;;;;;;4994129;28;20096;-89
2023/10/10 06:32:30;;;;;;;98.80;55.88;;;13.40;99.90;;;;;;4989233;28;20045;-89
2023/10/10 06:35:25;;;;;;;87.97;53.15;;;13.40;99.90;;;;;;4990444;28;20026;-88
2023/10/10 06:37:42;;;;;;;90.75;51.70;;;13.40;99.90;;;;;;5007064;28;20025;-89
2023/10/10 06:40:09;;;;;;;95.43;51.70;;;13.40;99.90;;;;;;4998443;28;20022;-90
2023/10/10 06:42:39;;;;;;;77.07;49.22;;;13.40;99.90;;;;;;4999158;28;20033;-89
2023/10/10 06:45:09;;;;;;;85.35;51.92;;;13.40;99.90;;;;;;4997855;28;20410;-88
2023/10/10 06:47:39;;;;;;;86.93;50.40;;;13.50;99.90;;;;;;4999461;28;20033;-89
2023/10/10 06:50:11;;;;;;;79.55;47.70;;;13.50;99.90;;;;;;4997856;28;20026;-89
2023/10/10 06:52:37;;;;;;;74.93;46.50;;;13.50;99.90;;;;;;5007731;28;20029;-88
2023/10/10 06:55:10;;;;;;;74.18;47.15;;;13.50;99.90;;;;;;4997894;28;20473;-89
2023/10/10 06:57:38;;;;;;;71.05;45.30;;;13.60;99.90;;;;;;4994779;28;20033;-89
2023/10/10 07:00:19;;;;;;;74.45;43.72;;;13.70;99.90;;;;;;4996977;28;20041;-90
2023/10/10 07:02:49;;;;;;;65.78;42.50;;;13.70;99.90;;;;;;5001917;28;20032;-89
2023/10/10 07:05:15;;;;;;;75.05;42.05;;;13.70;99.90;;;;;;5020759;28;20061;-88
2023/10/10 07:07:44;;;;;;;63.88;41.22;;;13.80;99.90;;;;;;4987072;28;20031;-89
2023/10/10 07:10:11;;;;;;;63.20;40.08;;;13.80;99.90;;;;;;4969436;28;20548;-87
2023/10/10 07:12:38;;;;;;;65.22;39.28;;;14.00;99.90;;;;;;4990797;28;20022;-89
2023/10/10 07:15:06;;;;;;;59.47;38.58;;;13.90;99.90;;;;;;4986417;28;20117;-88
2023/10/10 07:17:32;;;;;;;58.83;38.03;;;14.10;99.90;;;;;;4989117;28;20026;-87
2023/10/10 07:22:36;;;;;;;52.75;35.97;;;14.30;99.90;;;;;;5004307;28;20084;-87
2023/10/10 07:27:47;;;;;;;47.10;31.02;;;14.40;99.90;;;;;;5013527;28;20040;-88
2023/10/10 07:32:42;;;;;;;47.45;30.35;;;14.50;99.90;;;;;;5012846;28;20030;-88
2023/10/10 07:35:14;;;;;;;50.88;32.03;;;14.50;99.90;;;;;;4994147;28;20057;-89
2023/10/10 07:37:44;;;;;;;49.15;30.80;;;14.60;99.90;;;;;;4980023;28;20109;-88
2023/10/10 07:42:50;;;;;;;47.13;29.08;;;14.70;99.90;;;;;;5001269;28;20038;-88
2023/10/10 07:45:29;;;;;;;45.08;28.23;;;14.70;99.90;;;;;;4989412;28;20045;-88
2023/10/10 07:50:26;;;;;;;40.47;29.00;;;14.90;99.90;;;;;;5012682;28;20030;-88
2023/10/10 07:52:55;;;;;;;39.83;27.70;;;14.90;99.90;;;;;;4995835;28;20027;-88
2023/10/10 07:55:24;;;;;;;40.75;26.08;;;15.00;99.90;;;;;;5012814;28;20029;-88
2023/10/10 07:57:56;;;;;;;35.78;26.05;;;15.10;99.90;;;;;;5011369;28;20041;-87
2023/10/10 08:00:27;;;;;;;35.45;25.35;;;15.10;99.90;;;;;;4995026;28;20092;-87
2023/10/10 08:02:53;;;;;;;40.42;25.90;;;15.30;99.90;;;;;;4983028;28;20114;-88
2023/10/10 08:05:19;;;;;;;35.95;25.25;;;15.20;99.90;;;;;;4985510;28;20117;-88
2023/10/10 08:07:46;;;;;;;35.72;24.20;;;15.30;99.90;;;;;;4993854;28;20117;-88
2023/10/10 08:10:29;;;;;;;37.60;24.52;;;15.30;99.90;;;;;;4995392;28;20056;-88
2023/10/10 08:13:02;;;;;;;32.67;24.20;;;15.40;99.90;;;;;;5008879;28;20430;-88
2023/10/10 08:15:28;;;;;;;35.67;24.85;;;15.40;99.90;;;;;;4994150;28;20037;-88
2023/10/10 08:17:54;;;;;;;35.45;24.23;;;15.50;99.90;;;;;;4986369;28;20026;-88
2023/10/10 08:20:34;;;;;;;34.65;24.13;;;15.50;99.90;;;;;;4992624;28;20033;-86
2023/10/10 08:23:04;;;;;;;33.08;24.08;;;15.50;99.90;;;;;;4996354;28;20450;-85
2023/10/10 08:25:30;;;;;;;34.35;22.58;;;15.60;99.90;;;;;;4993633;28;20022;-85
2023/10/10 08:27:58;;;;;;;32.28;23.15;;;15.60;99.90;;;;;;4992363;28;20030;-85
2023/10/10 08:30:25;;;;;;;36.75;24.52;;;15.70;99.90;;;;;;4986713;28;20524;-85
2023/10/10 08:32:58;;;;;;;34.22;23.90;;;15.70;99.90;;;;;;4992511;28;20539;-86
2023/10/10 08:35:24;;;;;;;;;;;15.80;99.90;;;;;;4990266;28;20034;-90
2023/10/10 08:37:53;;;;;;;33.65;22.17;;;15.80;99.90;;;;;;4992050;28;20310;-90
2023/10/10 08:40:22;;;;;;;32.53;23.60;;;15.80;99.90;;;;;;4990619;28;20405;-89
2023/10/10 08:42:50;;;;;;;33.50;23.65;;;15.90;99.90;;;;;;4985137;28;20037;-89
2023/10/10 08:45:23;;;;;;;35.28;24.50;;;15.90;99.90;;;;;;4983760;28;20474;-89
2023/10/10 08:47:59;;;;;;;34.00;23.20;;;15.90;99.90;;;;;;4969936;28;20069;-89
2023/10/10 08:50:24;;;;;;;32.60;23.27;;;16.00;99.90;;;;;;4989256;28;20414;-89
2023/10/10 08:52:51;;;;;;;34.75;23.27;;;16.00;99.90;;;;;;4994984;28;20033;-88
2023/10/10 08:55:19;;;;;;;30.08;22.00;;;16.10;99.90;;;;;;4990962;28;20130;-89
2023/10/10 08:57:45;;;;;;;33.85;23.98;;;16.20;99.90;;;;;;4988370;28;20049;-89
2023/10/10 09:00:11;;;;;;;32.60;23.10;;;16.20;99.90;;;;;;4994091;28;20275;-90
2023/10/10 09:02:37;;;;;;;31.13;22.73;;;16.30;99.90;;;;;;4994567;28;20022;-88
2023/10/10 09:05:06;;;;;;;37.70;24.75;;;16.30;99.90;;;;;;5012432;28;20033;-89
2023/10/10 09:07:32;;;;;;;34.10;23.13;;;16.30;99.90;;;;;;4994913;28;20100;-89
2023/10/10 09:10:13;;;;;;;34.97;25.05;;;16.40;99.90;;;;;;4990955;28;20061;-89
2023/10/10 09:12:52;;;;;;;36.45;24.75;;;16.40;99.90;;;;;;4994997;28;20033;-89
2023/10/10 09:15:19;;;;;;;38.28;25.02;;;16.50;99.90;;;;;;4994580;28;20040;-89
2023/10/10 09:17:46;;;;;;;36.97;25.20;;;16.60;99.90;;;;;;4994691;28;20029;-90
2023/10/10 09:20:22;;;;;;;34.53;25.67;;;16.70;99.90;;;;;;4993531;28;20037;-89
2023/10/10 09:22:51;;;;;;;36.38;25.52;;;16.70;99.90;;;;;;5011261;28;20026;-89
2023/10/10 09:25:20;;;;;;;36.42;25.70;;;16.70;99.90;;;;;;4991142;28;20030;-84
2023/10/10 09:27:57;;;;;;;31.95;24.33;;;16.80;99.90;;;;;;4993224;28;20022;-84
2023/10/10 09:30:31;;;;;;;34.97;24.92;;;16.90;99.90;;;;;;4982633;28;20049;-84
2023/10/10 09:33:12;;;;;;;35.38;26.27;;;17.00;99.90;;;;;;4991329;28;20393;-84
2023/10/10 09:35:45;;;;;;;37.53;24.50;;;17.00;99.90;;;;;;4985655;28;20041;-85
2023/10/10 09:38:16;;;;;;;31.92;24.20;;;17.10;99.90;;;;;;4988669;28;20045;-86
2023/10/10 09:40:46;;;;;;;42.03;26.85;;;17.20;99.90;;;;;;5008707;28;20014;-87
2023/10/10 09:43:24;;;;;;;36.53;25.45;;;17.30;99.90;;;;;;4993316;28;20057;-86
2023/10/10 09:46:10;;;;;;;34.03;23.67;;;17.40;99.90;;;;;;4991139;28;20057;-86
2023/10/10 09:54:00;;;;;;;34.10;24.50;;;17.60;99.90;;;;;;5014166;28;21034;-93
2023/10/10 09:56:29;;;;;;;29.88;21.88;;;17.80;99.90;;;;;;4992289;28;20092;-86
2023/10/10 09:58:57;;;;;;;26.58;20.73;;;17.80;99.90;;;;;;4993227;28;20451;-86
2023/10/10 10:01:23;;;;;;;33.70;24.65;;;17.90;99.90;;;;;;4993891;28;20030;-86
2023/10/10 10:03:55;;;;;;;29.38;22.27;;;17.90;99.90;;;;;;4995596;28;20069;-86
2023/10/10 10:06:51;;;;;;;31.98;21.77;;;17.90;99.90;;;;;;4995519;28;20038;-85
2023/10/10 10:09:32;;;;;;;29.88;20.45;;;18.00;99.90;;;;;;5006202;28;20049;-86
2023/10/10 10:12:33;;;;;;;26.17;17.97;;;18.10;99.90;;;;;;4992243;28;20022;-86
2023/10/10 10:15:28;;;;;;;26.08;20.80;;;18.20;99.90;;;;;;4987285;28;20030;-92
2023/10/10 10:18:13;;;;;;;29.75;19.85;;;18.30;99.90;;;;;;4997495;28;20351;-90
2023/10/10 10:20:47;;;;;;;29.73;19.80;;;18.40;99.90;;;;;;4998105;28;20030;-92
2023/10/10 10:23:25;;;;;;;33.00;20.65;;;18.50;99.90;;;;;;5015149;28;20109;-85
2023/10/10 10:26:10;;;;;;;28.20;18.73;;;18.70;99.90;;;;;;4995545;28;20410;-85
2023/10/10 10:28:37;;;;;;;30.52;18.60;;;18.80;99.90;;;;;;4990770;28;20033;-85
2023/10/10 10:31:16;;;;;;;25.38;18.02;;;18.90;99.90;;;;;;5000119;28;20058;-85
2023/10/10 10:34:05;;;;;;;23.92;18.08;;;18.90;99.90;;;;;;4993147;28;20616;-86
2023/10/10 10:36:45;;;;;;;26.00;17.92;;;19.10;99.90;;;;;;4988664;28;20069;-84
2023/10/10 10:39:26;;;;;;;21.95;16.30;;;19.20;99.90;;;;;;4989049;28;20059;-85
2023/10/10 10:41:59;;;;;;;23.70;15.50;;;19.30;99.90;;;;;;4992917;28;20099;-84
2023/10/10 10:44:53;;;;;;;21.90;15.25;;;19.40;99.90;;;;;;5012970;28;20033;-86
2023/10/10 10:47:46;;;;;;;20.42;14.60;;;19.40;99.90;;;;;;4992450;28;20045;-87
2023/10/10 10:50:30;;;;;;;19.38;14.57;;;19.50;99.90;;;;;;4995024;28;20025;-92
2023/10/10 10:53:04;;;;;;;19.70;15.35;;;19.50;99.90;;;;;;4995955;28;20041;-91
2023/10/10 10:55:30;;;;;;;22.75;14.60;;;19.50;99.90;;;;;;4992761;28;20061;-92
2023/10/10 11:01:07;;;;;;;20.83;14.02;;;19.70;99.90;;;;;;4995656;28;20133;-90
2023/10/10 11:03:37;;;;;;;22.10;13.75;;;19.80;99.90;;;;;;4988578;28;20474;-92
2023/10/10 11:06:09;;;;;;;21.70;14.10;;;19.90;99.90;;;;;;4985720;28;20128;-92
2023/10/10 11:16:56;;;;;;;19.90;13.32;;;20.10;99.90;;;;;;5000455;28;20084;-84
2023/10/10 11:22:05;;;;;;;20.50;14.35;;;20.30;99.90;;;;;;5003889;28;20038;-85
2023/10/10 11:24:33;;;;;;;19.30;12.48;;;20.40;99.90;;;;;;4993887;28;20034;-85
2023/10/10 11:29:45;;;;;;;21.77;13.32;;;20.60;99.90;;;;;;5008321;28;20042;-85
2023/10/10 11:32:15;;;;;;;19.60;12.68;;;20.70;99.90;;;;;;4991779;28;20069;-86
2023/10/10 11:34:44;;;;;;;26.30;13.15;;;20.80;99.90;;;;;;4995763;28;20083;-88
2023/10/10 11:37:23;;;;;;;21.40;12.15;;;20.80;99.90;;;;;;4992873;28;20172;-87
2023/10/10 11:40:19;;;;;;;19.25;12.15;;;20.90;99.90;;;;;;4992836;28;20038;-88
2023/10/10 11:42:47;;;;;;;19.55;11.68;;;20.90;99.90;;;;;;4989973;28;20064;-89
2023/10/10 11:45:17;;;;;;;17.92;10.93;;;21.10;99.90;;;;;;4993749;28;20124;-89
2023/10/10 11:47:44;;;;;;;18.92;11.60;;;21.10;99.90;;;;;;5014181;28;20377;-93
2023/10/10 11:50:12;;;;;;;18.83;11.82;;;21.20;99.90;;;;;;4995094;28;20018;-94
2023/10/10 11:52:56;;;;;;;22.92;12.75;;;21.30;99.90;;;;;;5003039;28;20049;-94
2023/10/10 11:55:22;;;;;;;18.05;11.48;;;21.30;99.90;;;;;;4998605;28;20034;-95
2023/10/10 11:57:49;;;;;;;18.35;10.70;;;21.40;99.90;;;;;;4991319;28;20027;-96
2023/10/10 12:00:22;;;;;;;17.50;11.63;;;21.50;99.90;;;;;;4993842;28;20026;-95
2023/10/10 12:02:50;;;;;;;19.40;10.93;;;21.50;99.90;;;;;;4989720;28;20489;-88
2023/10/10 12:07:53;;;;;;;20.50;12.15;;;21.60;99.90;;;;;;5008526;28;20079;-91
2023/10/10 12:10:24;;;;;;;15.52;8.63;;;21.70;99.90;;;;;;4993251;28;20143;-90
2023/10/10 12:12:53;;;;;;;19.92;10.90;;;21.80;99.90;;;;;;4995870;28;20498;-88
2023/10/10 12:15:22;;;;;;;16.42;11.02;;;22.10;99.90;;;;;;4994390;28;20516;-93
2023/10/10 12:17:48;;;;;;;16.95;9.70;;;22.20;99.90;;;;;;4996100;28;20022;-92
2023/10/10 12:20:16;;;;;;;17.15;10.70;;;22.30;99.90;;;;;;4993864;28;20380;-95
2023/10/10 12:22:41;;;;;;;15.43;9.10;;;22.40;99.90;;;;;;4995428;28;20035;-93
2023/10/10 12:25:13;;;;;;;14.45;8.93;;;22.50;99.90;;;;;;4992207;28;20034;-94
2023/10/10 12:27:46;;;;;;;16.38;9.63;;;22.60;99.90;;;;;;4984992;28;20060;-95
2023/10/10 12:30:19;;;;;;;12.77;8.30;;;22.80;99.90;;;;;;4994941;28;20528;-92
2023/10/10 12:32:49;;;;;;;13.93;8.00;;;22.90;99.90;;;;;;5021289;28;20125;-91
2023/10/10 12:35:15;;;;;;;16.55;9.18;;;22.90;99.90;;;;;;4998027;28;20500;-93
2023/10/10 12:37:44;;;;;;;15.50;9.40;;;22.90;99.90;;;;;;4994295;28;20031;-92
2023/10/10 12:40:14;;;;;;;15.32;8.63;;;22.90;99.90;;;;;;4999693;28;20034;-91
2023/10/10 12:42:40;;;;;;;14.70;9.07;;;23.00;99.90;;;;;;4994631;28;20113;-90
2023/10/10 12:45:07;;;;;;;18.08;7.78;;;23.10;99.90;;;;;;4996790;28;20061;-90
2023/10/10 12:47:33;;;;;;;16.73;7.78;;;23.10;99.90;;;;;;4986047;28;20042;-91
2023/10/10 12:50:12;;;;;;;12.48;7.55;;;23.20;99.90;;;;;;4991256;28;20033;-89
2023/10/10 12:52:45;;;;;;;14.15;7.53;;;23.20;99.90;;;;;;4995662;28;20080;-89
2023/10/10 12:55:11;;;;;;;14.45;7.90;;;23.10;99.90;;;;;;4996987;28;20658;-88
2023/10/10 12:57:37;;;;;;;13.82;8.35;;;23.20;99.90;;;;;;4997330;28;20103;-89
2023/10/10 13:02:53;;;;;;;11.25;7.22;;;23.20;99.90;;;;;;5012147;28;20041;-88
2023/10/10 13:05:26;;;;;;;11.82;6.95;;;23.20;99.90;;;;;;4997153;28;20030;-89
2023/10/10 13:07:58;;;;;;;10.15;5.95;;;23.30;99.90;;;;;;4996838;28;20026;-89
2023/10/10 13:10:30;;;;;;;15.02;7.25;;;23.40;99.90;;;;;;4995373;28;20547;-89
2023/10/10 13:12:56;;;;;;;15.00;7.70;;;23.50;99.90;;;;;;4996090;28;20029;-87
2023/10/10 13:15:30;;;;;;;14.38;7.70;;;23.50;99.90;;;;;;4997571;28;20038;-95
2023/10/10 13:20:43;;;;;;;13.25;6.82;;;23.70;99.90;;;;;;5011236;28;20402;-96
2023/10/10 13:23:09;;;;;;;12.02;7.28;;;23.70;99.90;;;;;;4993746;28;20053;-94
2023/10/10 13:25:38;;;;;;;13.77;7.05;;;23.70;99.90;;;;;;4991654;28;20065;-94
2023/10/10 13:28:17;;;;;;;9.98;6.53;;;23.70;99.90;;;;;;4995362;28;20038;-94
2023/10/10 13:30:46;;;;;;;12.75;7.20;;;23.80;99.90;;;;;;4995334;28;20042;-95
2023/10/10 13:33:16;;;;;;;11.50;5.68;;;23.90;99.90;;;;;;4994519;28;20030;-93
2023/10/10 13:35:42;;;;;;;12.32;6.50;;;23.90;99.90;;;;;;4995685;28;20026;-93
2023/10/10 13:38:09;;;;;;;13.63;6.70;;;23.90;99.90;;;;;;4998644;28;20026;-94
2023/10/10 13:40:38;;;;;;;13.43;6.88;;;23.90;99.90;;;;;;4997830;28;20041;-94
2023/10/10 13:43:15;;;;;;;11.98;6.75;;;23.90;99.90;;;;;;4997875;28;20033;-94
2023/10/10 13:45:41;;;;;;;11.88;6.20;;;23.90;99.90;;;;;;4991829;28;20079;-95
2023/10/10 13:48:14;;;;;;;10.20;6.55;;;23.90;99.90;;;;;;4987289;28;20033;-94
2023/10/10 13:50:44;;;;;;;15.18;6.13;;;24.00;99.90;;;;;;4987526;28;20029;-94
2023/10/10 13:53:12;;;;;;;13.57;7.30;;;24.10;99.90;;;;;;4993102;28;20475;-91
2023/10/10 13:55:43;;;;;;;16.67;6.97;;;24.30;99.90;;;;;;4998050;28;20099;-93
2023/10/10 13:58:11;;;;;;;12.57;6.25;;;24.40;99.90;;;;;;4998808;28;20030;-92
2023/10/10 14:00:39;;;;;;;11.02;5.35;;;24.40;99.90;;;;;;4996412;28;20060;-92
2023/10/10 14:03:05;;;;;;;13.02;6.93;;;24.30;99.90;;;;;;4999402;28;20033;-92
2023/10/10 14:05:37;;;;;;;14.13;6.05;;;24.30;99.90;;;;;;4999412;28;20034;-94
2023/10/10 14:08:07;;;;;;;11.98;6.65;;;24.20;99.90;;;;;;5010547;28;20151;-94
2023/10/10 14:10:38;;;;;;;11.07;5.30;;;24.00;99.90;;;;;;4979341;28;20124;-93
2023/10/10 14:13:18;;;;;;;11.00;5.30;;;23.90;99.80;;;;;;4998823;28;20026;-95
2023/10/10 14:16:01;;;;;;;14.15;6.00;;;23.80;99.80;;;;;;4998513;28;20026;-94
2023/10/10 14:18:31;;;;;;;10.27;5.93;;;23.70;99.90;;;;;;5001146;28;20037;-94
2023/10/10 14:21:08;;;;;;;9.45;5.43;;;23.80;99.90;;;;;;4996113;28;20026;-92
2023/10/10 14:23:40;;;;;;;8.73;4.95;;;23.90;99.70;;;;;;5000894;28;20116;-93
2023/10/10 14:26:13;;;;;;;10.43;5.63;;;24.00;99.20;;;;;;4997059;28;20038;-94
2023/10/10 14:28:52;;;;;;;8.10;4.38;;;24.10;98.70;;;;;;4996662;28;20125;-93
2023/10/10 14:31:22;;;;;;;261.77;102.97;;;24.30;98.20;;;;;;4992926;28;20108;-94
2023/10/10 14:33:51;;;;;;;38.33;18.15;;;24.50;98.00;;;;;;4998249;28;20085;-92
2023/10/10 14:36:17;;;;;;;18.15;8.95;;;24.60;97.40;;;;;;4998494;28;20026;-90
2023/10/10 14:38:46;;;;;;;18.85;10.02;;;24.70;96.60;;;;;;4999828;28;20172;-87
2023/10/10 14:41:20;;;;;;;12.63;6.13;;;24.80;96.70;;;;;;5005389;28;20072;-90
2023/10/10 14:43:47;;;;;;;14.23;6.30;;;24.90;96.30;;;;;;4991125;28;20137;-89
2023/10/10 14:46:21;;;;;;;12.07;4.70;;;24.70;96.20;;;;;;4994528;28;20087;-92
2023/10/10 14:48:48;;;;;;;13.07;5.30;;;24.60;95.70;;;;;;5001815;28;20057;-90
2023/10/10 14:51:18;;;;;;;12.77;5.10;;;24.40;95.60;;;;;;4996112;28;20049;-89
2023/10/10 14:53:51;;;;;;;11.75;5.20;;;24.10;95.50;;;;;;4991735;28;20029;-89
2023/10/10 14:56:22;;;;;;;10.48;3.90;;;23.90;95.60;;;;;;4986359;28;20410;-90
2023/10/10 14:58:48;;;;;;;12.30;4.50;;;23.80;96.00;;;;;;4984995;28;20042;-89
2023/10/10 15:01:17;;;;;;;7.40;3.60;;;23.60;96.50;;;;;;4981060;28;20041;-90
2023/10/10 15:03:43;;;;;;;7.22;3.38;;;23.50;96.90;;;;;;4988125;28;20030;-89
2023/10/10 15:06:09;;;;;;;7.32;3.90;;;23.40;97.20;;;;;;4978445;28;20038;-88
2023/10/10 15:08:35;;;;;;;9.88;3.72;;;23.30;97.40;;;;;;4986883;28;20034;-90
2023/10/10 15:11:00;;;;;;;7.03;4.00;;;23.30;97.60;;;;;;4989509;28;20086;-90
2023/10/10 15:13:26;;;;;;;7.10;3.40;;;23.30;97.50;;;;;;4996911;28;20489;-90
2023/10/10 15:15:52;;;;;;;14.90;3.72;;;23.30;97.60;;;;;;4995481;28;20095;-90
2023/10/10 15:18:18;;;;;;;8.98;3.28;;;23.40;97.70;;;;;;4992849;28;20037;-89
2023/10/10 15:20:48;;;;;;;8.88;3.30;;;23.50;97.30;;;;;;4993191;28;20026;-90
2023/10/10 15:23:18;;;;;;;7.15;3.20;;;23.50;97.00;;;;;;4990892;28;20034;-89
2023/10/10 15:26:04;;;;;;;9.68;3.10;;;23.50;96.80;;;;;;4989141;28;20033;-89
2023/10/10 15:28:30;;;;;;;10.27;3.33;;;23.50;96.90;;;;;;4991176;28;20034;-90
2023/10/10 15:30:57;;;;;;;9.82;3.28;;;23.50;97.10;;;;;;4991609;28;20048;-90